createdAt,value
2019-02-25T00:01:00.406Z,45.43
2019-02-25T00:03:30.062Z,44.40
2019-02-25T00:05:59.540Z,44.53
2019-02-25T00:08:28.999Z,45.07
2019-02-25T00:10:58.422Z,36.37
2019-02-25T00:13:27.813Z,41.23
2019-02-25T00:15:57.304Z,38.67
2019-02-25T00:18:26.813Z,32.40
2019-02-25T00:20:56.208Z,35.60
2019-02-25T00:23:25.655Z,32.27
2019-02-25T00:25:55.410Z,26.43
2019-02-25T00:28:24.815Z,23.83
2019-02-25T00:30:54.282Z,18.13
2019-02-25T00:33:23.783Z,16.53
2019-02-25T00:35:53.182Z,13.67
2019-02-25T00:38:22.549Z,18.00
2019-02-25T00:40:52.126Z,22.13
2019-02-25T00:43:21.713Z,17.23
2019-02-25T00:45:51.081Z,13.77
2019-02-25T00:48:21.071Z,16.17
2019-02-25T00:50:50.556Z,17.20
2019-02-25T00:53:20.003Z,15.00
2019-02-25T00:55:49.670Z,14.00
2019-02-25T00:58:19.060Z,14.60
2019-02-25T01:00:48.531Z,12.83
2019-02-25T01:03:18.060Z,14.13
2019-02-25T01:05:47.420Z,14.47
2019-02-25T01:08:16.901Z,17.13
2019-02-25T01:10:46.307Z,15.17
2019-02-25T01:13:15.802Z,16.80
2019-02-25T01:15:45.280Z,13.77
2019-02-25T01:18:14.785Z,11.87
2019-02-25T01:20:44.162Z,12.53
2019-02-25T01:23:13.594Z,13.73
2019-02-25T01:25:43.253Z,15.47
2019-02-25T01:28:12.726Z,17.27
2019-02-25T01:30:42.111Z,15.13
2019-02-25T01:33:11.518Z,14.67
2019-02-25T01:35:41.001Z,16.87
2019-02-25T01:38:10.458Z,13.00
2019-02-25T01:40:39.868Z,13.10
2019-02-25T01:43:09.262Z,14.17
2019-02-25T01:45:38.721Z,11.80
2019-02-25T01:48:08.376Z,13.57
2019-02-25T01:50:37.845Z,15.23
2019-02-25T01:53:07.311Z,17.50
2019-02-25T01:55:36.726Z,14.60
2019-02-25T01:58:06.124Z,16.40
2019-02-25T02:00:35.599Z,16.43
2019-02-25T02:03:05.811Z,17.43
2019-02-25T02:05:35.191Z,14.60
2019-02-25T02:08:04.602Z,14.93
2019-02-25T02:10:34.225Z,15.37
2019-02-25T02:13:03.701Z,20.70
2019-02-25T02:15:33.078Z,13.17
2019-02-25T02:18:02.749Z,13.73
2019-02-25T02:20:32.239Z,16.73
2019-02-25T02:23:01.715Z,15.67
2019-02-25T02:25:31.141Z,13.40
2019-02-25T02:28:00.605Z,12.43
2019-02-25T02:30:30.004Z,11.00
2019-02-25T02:32:59.431Z,12.73
2019-02-25T02:35:28.916Z,13.57
2019-02-25T02:37:58.380Z,12.27
2019-02-25T02:40:27.972Z,12.23
2019-02-25T02:42:58.238Z,14.90
2019-02-25T02:46:01.388Z,14.27
2019-02-25T02:48:40.406Z,13.50
2019-02-25T02:51:09.810Z,17.97
2019-02-25T02:53:39.247Z,13.63
2019-02-25T02:56:08.711Z,16.97
2019-02-25T02:58:38.227Z,14.87
2019-02-25T03:01:07.606Z,14.53
2019-02-25T03:03:37.027Z,21.37
2019-02-25T03:06:06.569Z,15.13
2019-02-25T03:08:35.944Z,16.40
2019-02-25T03:11:05.417Z,17.93
2019-02-25T03:13:34.937Z,18.83
2019-02-25T03:16:04.409Z,16.17
2019-02-25T03:18:33.802Z,21.57
2019-02-25T03:21:03.337Z,16.37
2019-02-25T03:23:32.801Z,16.83
2019-02-25T03:26:02.167Z,19.77
2019-02-25T03:28:31.625Z,22.50
2019-02-25T03:31:01.088Z,23.20
2019-02-25T03:33:30.680Z,19.97
2019-02-25T03:36:00.323Z,25.97
2019-02-25T03:38:29.711Z,17.30
2019-02-25T03:40:59.185Z,22.20
2019-02-25T03:43:28.930Z,18.50
2019-02-25T03:45:58.303Z,17.30
2019-02-25T03:48:27.711Z,19.37
2019-02-25T03:50:57.230Z,18.97
2019-02-25T03:53:26.703Z,19.93
2019-02-25T03:55:56.077Z,16.57
2019-02-25T03:58:25.776Z,15.87
2019-02-25T04:00:55.263Z,17.00
2019-02-25T04:03:24.721Z,18.37
2019-02-25T04:05:54.392Z,19.17
2019-02-25T04:08:23.776Z,16.53
2019-02-25T04:10:53.272Z,59.83
2019-02-25T04:13:22.774Z,19.30
2019-02-25T04:15:52.221Z,21.30
2019-02-25T04:18:21.620Z,54.10
2019-02-25T04:20:51.301Z,25.83
2019-02-25T04:23:20.809Z,18.77
2019-02-25T04:25:50.201Z,28.70
2019-02-25T04:28:19.696Z,21.80
2019-02-25T04:30:49.089Z,30.90
2019-02-25T04:33:18.607Z,17.90
2019-02-25T04:35:48.127Z,24.23
2019-02-25T04:38:17.614Z,20.13
2019-02-25T04:40:47.017Z,25.23
2019-02-25T04:43:16.411Z,19.47
2019-02-25T04:45:45.922Z,25.00
2019-02-25T04:48:15.400Z,23.43
2019-02-25T04:50:44.817Z,25.80
2019-02-25T04:53:14.245Z,30.20
2019-02-25T04:55:43.705Z,29.57
2019-02-25T04:58:13.473Z,24.60
2019-02-25T05:00:42.866Z,17.83
2019-02-25T05:03:12.260Z,16.77
2019-02-25T05:05:41.765Z,17.97
2019-02-25T05:08:11.198Z,21.83
2019-02-25T05:10:40.666Z,22.33
2019-02-25T05:13:10.179Z,20.50
2019-02-25T05:15:39.561Z,38.70
2019-02-25T05:18:09.102Z,25.53
2019-02-25T05:20:38.636Z,24.93
2019-02-25T05:23:08.116Z,21.80
2019-02-25T05:25:37.499Z,15.53
2019-02-25T05:28:06.949Z,20.33
2019-02-25T05:30:36.431Z,27.60
2019-02-25T05:33:05.904Z,35.00
2019-02-25T05:35:35.331Z,31.40
2019-02-25T05:38:04.748Z,22.40
2019-02-25T05:40:34.293Z,24.63
2019-02-25T05:43:03.788Z,20.30
2019-02-25T05:45:33.194Z,22.80
2019-02-25T05:48:02.674Z,23.00
2019-02-25T05:50:32.177Z,21.93
2019-02-25T05:53:01.607Z,24.43
2019-02-25T05:55:31.150Z,25.20
2019-02-25T05:58:00.646Z,23.93
2019-02-25T06:00:31.042Z,27.70
2019-02-25T06:03:00.469Z,24.93
2019-02-25T06:05:29.990Z,22.87
2019-02-25T06:07:59.459Z,25.03
2019-02-25T06:10:28.841Z,18.93
2019-02-25T06:12:58.273Z,18.00
2019-02-25T06:15:27.762Z,25.47
2019-02-25T06:17:57.238Z,21.23
2019-02-25T06:20:26.682Z,22.37
2019-02-25T06:22:56.105Z,17.70
2019-02-25T06:25:25.578Z,27.33
2019-02-25T06:27:55.008Z,18.83
2019-02-25T06:30:24.603Z,19.77
2019-02-25T06:32:54.146Z,19.87
2019-02-25T06:35:23.804Z,22.10
2019-02-25T06:37:54.152Z,24.80
2019-02-25T06:40:23.699Z,24.80
2019-02-25T06:42:53.226Z,33.73
2019-02-25T06:45:22.724Z,19.67
2019-02-25T06:47:52.125Z,18.47
2019-02-25T06:50:21.675Z,22.47
2019-02-25T06:52:51.156Z,24.10
2019-02-25T06:55:20.539Z,18.43
2019-02-25T06:57:49.980Z,16.77
2019-02-25T07:00:19.613Z,18.97
2019-02-25T07:02:49.083Z,16.87
2019-02-25T07:05:33.877Z,16.97
2019-02-25T07:08:15.910Z,19.43
2019-02-25T07:11:00.522Z,17.73
2019-02-25T07:13:48.870Z,14.17
2019-02-25T07:16:45.476Z,15.07
2019-02-25T07:19:29.099Z,17.17
2019-02-25T07:22:35.888Z,16.20
2019-02-25T07:25:17.156Z,18.73
2019-02-25T07:28:14.666Z,19.37
2019-02-25T07:30:58.039Z,18.03
2019-02-25T07:33:35.044Z,21.10
2019-02-25T07:36:12.060Z,17.07
2019-02-25T07:38:57.310Z,14.93
2019-02-25T07:41:38.215Z,19.23
2019-02-25T07:44:32.877Z,16.20
2019-02-25T07:47:23.153Z,17.43
2019-02-25T07:50:17.795Z,13.07
2019-02-25T07:53:24.201Z,13.63
2019-02-25T07:56:07.076Z,14.17
2019-02-25T07:58:49.430Z,14.00
2019-02-25T08:01:55.878Z,11.57
2019-02-25T08:04:39.463Z,16.73
2019-02-25T08:07:36.755Z,16.87
2019-02-25T08:10:25.341Z,26.40
2019-02-25T08:13:13.690Z,16.43
2019-02-25T08:16:02.034Z,29.33
2019-02-25T08:18:50.946Z,21.70
2019-02-25T08:21:39.341Z,24.40
2019-02-25T08:24:30.183Z,27.10
2019-02-25T08:27:17.643Z,15.60
2019-02-25T08:30:11.817Z,17.67
2019-02-25T08:33:02.981Z,22.50
2019-02-25T08:36:40.430Z,21.00
2019-02-25T08:39:21.042Z,24.73
2019-02-25T08:41:56.496Z,25.57
2019-02-25T08:44:44.139Z,22.23
2019-02-25T08:47:38.407Z,20.40
2019-02-25T08:50:10.582Z,26.43
2019-02-25T08:52:39.970Z,20.57
2019-02-25T08:55:10.897Z,21.13
2019-02-25T08:57:40.367Z,25.17
2019-02-25T09:00:12.442Z,22.83
2019-02-25T09:02:41.861Z,20.40
2019-02-25T09:05:12.973Z,19.67
2019-02-25T09:07:42.882Z,24.00
2019-02-25T09:10:13.633Z,20.83
2019-02-25T09:12:43.171Z,23.73
2019-02-25T09:15:12.805Z,22.50
2019-02-25T09:17:44.182Z,21.40
2019-02-25T09:20:14.741Z,16.30
2019-02-25T09:22:44.202Z,16.97
2019-02-25T09:25:14.110Z,22.03
2019-02-25T09:27:43.588Z,29.53
2019-02-25T09:30:17.170Z,21.23
2019-02-25T09:32:46.943Z,21.10
2019-02-25T09:35:16.652Z,19.37
2019-02-25T09:37:46.126Z,23.93
2019-02-25T09:40:16.190Z,22.27
2019-02-25T09:42:45.548Z,31.80
2019-02-25T09:45:15.681Z,21.33
2019-02-25T09:47:45.174Z,16.17
2019-02-25T09:50:14.874Z,15.70
2019-02-25T09:52:44.265Z,17.50
2019-02-25T09:55:14.022Z,18.80
2019-02-25T09:57:43.597Z,14.57
2019-02-25T10:00:16.007Z,16.53
2019-02-25T10:02:45.511Z,21.50
2019-02-25T10:05:15.180Z,20.33
2019-02-25T10:07:44.714Z,21.20
2019-02-25T10:10:14.594Z,26.83
2019-02-25T10:12:44.109Z,19.30
2019-02-25T10:15:14.623Z,20.87
2019-02-25T10:17:44.021Z,14.37
2019-02-25T10:20:13.530Z,18.73
2019-02-25T10:22:43.017Z,21.20
2019-02-25T10:25:12.683Z,17.77
2019-02-25T10:27:42.047Z,20.67
2019-02-25T10:30:12.177Z,21.67
2019-02-25T10:32:41.653Z,21.17
2019-02-25T10:35:12.193Z,19.17
2019-02-25T10:37:43.686Z,18.17
2019-02-25T10:40:15.213Z,19.30
2019-02-25T10:42:44.741Z,22.83
2019-02-25T10:45:15.944Z,22.07
2019-02-25T10:47:46.798Z,17.97
2019-02-25T10:50:16.760Z,20.77
2019-02-25T10:52:47.636Z,18.87
2019-02-25T10:55:24.009Z,17.17
2019-02-25T10:57:56.657Z,18.63
2019-02-25T11:00:24.878Z,18.67
2019-02-25T11:02:56.439Z,18.57
2019-02-25T11:05:27.683Z,21.20
2019-02-25T11:07:56.758Z,24.47
2019-02-25T11:10:31.225Z,24.40
2019-02-25T11:13:02.099Z,23.07
2019-02-25T11:15:33.464Z,18.17
2019-02-25T11:18:03.002Z,34.10
2019-02-25T11:20:33.428Z,19.40
2019-02-25T11:23:03.466Z,24.23
2019-02-25T11:25:33.185Z,24.80
2019-02-25T11:28:04.709Z,24.73
2019-02-25T11:30:33.653Z,25.10
2019-02-25T11:33:03.186Z,22.23
2019-02-25T11:35:34.184Z,21.77
2019-02-25T11:38:03.692Z,18.03
2019-02-25T11:40:34.254Z,17.90
2019-02-25T11:43:04.298Z,19.13
2019-02-25T11:45:36.245Z,18.07
2019-02-25T11:48:05.486Z,22.70
2019-02-25T11:50:34.876Z,16.30
2019-02-25T11:53:04.354Z,22.37
2019-02-25T11:55:33.855Z,21.33
2019-02-25T11:58:03.254Z,22.07
2019-02-25T12:00:33.044Z,24.93
2019-02-25T12:03:02.545Z,25.97
2019-02-25T12:05:32.084Z,27.47
2019-02-25T12:08:01.500Z,20.73
2019-02-25T12:10:31.122Z,22.60
2019-02-25T12:13:00.583Z,23.20
2019-02-25T12:15:30.077Z,24.33
2019-02-25T12:17:59.549Z,28.03
2019-02-25T12:20:28.937Z,23.27
2019-02-25T12:22:58.435Z,28.50
2019-02-25T12:25:28.178Z,34.53
2019-02-25T12:27:57.598Z,35.23
2019-02-25T12:30:27.013Z,26.40
2019-02-25T12:32:56.527Z,25.40
2019-02-25T12:35:26.061Z,21.90
2019-02-25T12:37:55.456Z,16.53
2019-02-25T12:40:25.162Z,20.07
2019-02-25T12:42:54.575Z,18.80
2019-02-25T12:45:24.066Z,16.77
2019-02-25T12:47:53.584Z,17.53
2019-02-25T12:50:23.191Z,16.87
2019-02-25T12:52:52.599Z,18.90
2019-02-25T12:55:22.752Z,16.13
2019-02-25T12:57:52.213Z,12.10
2019-02-25T13:00:21.803Z,12.80
2019-02-25T13:02:51.238Z,14.70
2019-02-25T13:05:20.691Z,17.87
2019-02-25T13:07:50.195Z,16.67
2019-02-25T13:10:20.291Z,17.87
2019-02-25T13:12:51.528Z,17.70
2019-02-25T13:15:20.811Z,24.23
2019-02-25T13:17:50.634Z,16.37
2019-02-25T13:20:20.111Z,15.03
2019-02-25T13:22:49.580Z,18.90
2019-02-25T13:25:19.124Z,18.93
2019-02-25T13:27:48.470Z,14.50
2019-02-25T13:30:17.850Z,14.07
2019-02-25T13:32:47.383Z,14.17
2019-02-25T13:35:16.865Z,14.33
2019-02-25T13:37:46.251Z,19.60
2019-02-25T13:40:15.815Z,19.30
2019-02-25T13:42:45.357Z,14.20
2019-02-25T13:45:15.273Z,17.23
2019-02-25T13:47:44.691Z,16.57
2019-02-25T13:50:14.309Z,17.97
2019-02-25T13:52:48.421Z,14.73
2019-02-25T13:55:15.204Z,18.93
2019-02-25T13:57:44.667Z,33.27
2019-02-25T14:00:18.635Z,24.60
2019-02-25T14:02:48.399Z,21.40
2019-02-25T14:05:17.969Z,16.63
2019-02-25T14:07:47.441Z,21.53
2019-02-25T14:10:17.049Z,18.27
2019-02-25T14:12:46.758Z,23.97
2019-02-25T14:15:16.899Z,18.57
2019-02-25T14:17:46.456Z,23.20
2019-02-25T14:20:17.450Z,17.00
2019-02-25T14:22:46.837Z,17.93
2019-02-25T14:25:19.763Z,21.13
2019-02-25T14:27:49.611Z,26.77
2019-02-25T14:30:22.353Z,81.67
2019-02-25T14:32:53.372Z,63.23
2019-02-25T14:35:28.105Z,46.27
2019-02-25T14:38:01.725Z,30.00
2019-02-25T14:40:29.819Z,29.80
2019-02-25T14:43:02.635Z,31.60
2019-02-25T14:45:32.131Z,28.83
2019-02-25T14:48:04.832Z,25.87
2019-02-25T14:50:33.479Z,31.47
2019-02-25T14:53:05.540Z,29.87
2019-02-25T14:55:34.021Z,38.17
2019-02-25T14:58:06.810Z,24.37
2019-02-25T15:00:36.961Z,21.33
2019-02-25T15:03:06.254Z,21.70
2019-02-25T15:05:35.700Z,24.67
2019-02-25T15:08:05.481Z,24.30
2019-02-25T15:10:36.242Z,24.40
2019-02-25T15:13:08.360Z,25.67
2019-02-25T15:15:39.090Z,29.93
2019-02-25T15:18:08.647Z,28.23
2019-02-25T15:20:38.157Z,31.80
2019-02-25T15:23:07.663Z,29.20
2019-02-25T15:25:42.067Z,30.63
2019-02-25T15:28:11.317Z,34.47
2019-02-25T15:30:39.881Z,24.93
2019-02-25T15:33:09.672Z,27.17
2019-02-25T15:35:39.947Z,29.30
2019-02-25T15:38:10.329Z,24.03
2019-02-25T15:40:40.002Z,30.73
2019-02-25T15:43:15.136Z,26.53
2019-02-25T15:45:43.156Z,32.80
2019-02-25T15:48:17.324Z,29.30
2019-02-25T15:50:48.529Z,26.97
2019-02-25T15:53:18.640Z,31.73
2019-02-25T15:55:48.127Z,30.87
2019-02-25T15:58:18.361Z,27.13
2019-02-25T16:00:48.057Z,32.43
2019-02-25T16:03:20.588Z,32.97
2019-02-25T16:05:52.257Z,26.43
2019-02-25T16:08:23.598Z,29.00
2019-02-25T16:10:55.784Z,39.87
2019-02-25T16:13:25.153Z,35.90
2019-02-25T16:15:54.701Z,38.50
2019-02-25T16:18:25.348Z,24.97
2019-02-25T16:20:57.574Z,30.03
2019-02-25T16:23:27.889Z,22.40
2019-02-25T16:25:58.102Z,36.50
2019-02-25T16:28:29.009Z,36.53
2019-02-25T16:30:58.822Z,29.37
2019-02-25T16:33:29.045Z,33.43
2019-02-25T16:36:01.109Z,40.17
2019-02-25T16:38:31.975Z,39.63
2019-02-25T16:41:03.694Z,31.13
2019-02-25T16:43:33.009Z,35.73
2019-02-25T16:46:06.091Z,33.20
2019-02-25T16:48:33.739Z,42.87
2019-02-25T16:51:05.004Z,37.10
2019-02-25T16:53:36.995Z,35.00
2019-02-25T16:56:07.856Z,34.03
2019-02-25T16:58:37.053Z,34.30
2019-02-25T17:01:08.049Z,38.47
2019-02-25T17:03:39.756Z,27.60
2019-02-25T17:06:11.461Z,24.37
2019-02-25T17:08:40.628Z,25.93
2019-02-25T17:11:10.863Z,25.13
2019-02-25T17:13:41.591Z,35.03
2019-02-25T17:16:18.197Z,33.67
2019-02-25T17:18:46.079Z,26.80
2019-02-25T17:21:13.753Z,29.17
2019-02-25T17:23:43.320Z,33.03
2019-02-25T17:26:14.946Z,33.73
2019-02-25T17:28:44.297Z,41.20
2019-02-25T17:31:16.119Z,26.93
2019-02-25T17:33:46.927Z,26.83
2019-02-25T17:36:16.916Z,23.87
2019-02-25T17:38:47.568Z,24.17
2019-02-25T17:41:18.001Z,28.73
2019-02-25T17:43:47.398Z,41.63
2019-02-25T17:46:16.825Z,35.07
2019-02-25T17:48:46.332Z,39.10
2019-02-25T17:51:16.581Z,44.93
2019-02-25T17:53:48.252Z,34.60
2019-02-25T17:56:20.238Z,40.93
2019-02-25T17:58:49.531Z,41.63
2019-02-25T18:01:21.379Z,48.57
2019-02-25T18:03:50.290Z,59.77
2019-02-25T18:06:20.135Z,45.40
2019-02-25T18:08:52.716Z,38.43
2019-02-25T18:11:22.846Z,42.20
2019-02-25T18:13:55.144Z,38.60
2019-02-25T18:16:24.696Z,32.30
2019-02-25T18:18:54.468Z,30.87
2019-02-25T18:21:28.250Z,32.30
2019-02-25T18:23:56.324Z,30.10
2019-02-25T18:26:26.117Z,28.07
2019-02-25T18:28:55.492Z,29.50
2019-02-25T18:31:25.473Z,30.57
2019-02-25T18:33:54.950Z,30.03
2019-02-25T18:36:26.483Z,28.40
2019-02-25T18:38:55.568Z,36.47
2019-02-25T18:41:25.767Z,31.27
2019-02-25T18:43:56.223Z,29.77
2019-02-25T18:46:27.263Z,29.70
2019-02-25T18:48:57.018Z,29.27
2019-02-25T18:51:28.226Z,33.37
2019-02-25T18:53:59.723Z,37.47
2019-02-25T18:56:29.465Z,28.43
2019-02-25T18:59:08.756Z,29.63
2019-02-25T19:01:30.233Z,31.17
2019-02-25T19:03:59.616Z,26.33
2019-02-25T19:06:29.367Z,27.80
2019-02-25T19:08:59.033Z,24.47
2019-02-25T19:11:28.452Z,25.27
2019-02-25T19:14:01.790Z,24.30
2019-02-25T19:16:29.051Z,22.50
2019-02-25T19:18:58.462Z,19.97
2019-02-25T19:21:29.737Z,19.73
2019-02-25T19:23:59.195Z,28.60
2019-02-25T19:26:28.701Z,23.70
2019-02-25T19:28:59.122Z,29.03
2019-02-25T19:31:28.879Z,23.30
2019-02-25T19:34:00.557Z,28.47
2019-02-25T19:36:31.936Z,24.17
2019-02-25T19:39:05.069Z,19.60
2019-02-25T19:41:32.373Z,23.70
2019-02-25T19:44:03.673Z,23.80
2019-02-25T19:46:33.125Z,20.97
2019-02-25T19:49:02.498Z,23.00
2019-02-25T19:51:31.936Z,21.03
2019-02-25T19:54:02.602Z,20.77
2019-02-25T19:56:33.908Z,20.37
2019-02-25T19:59:05.483Z,24.00
2019-02-25T20:01:34.493Z,25.13
2019-02-25T20:04:06.349Z,28.50
2019-02-25T20:06:35.327Z,19.37
2019-02-25T20:09:07.570Z,21.73
2019-02-25T20:11:37.186Z,23.57
2019-02-25T20:14:06.672Z,20.17
2019-02-25T20:16:36.235Z,21.43
2019-02-25T20:19:06.797Z,24.40
2019-02-25T20:21:36.459Z,21.40
2019-02-25T20:24:07.765Z,22.77
2019-02-25T20:26:37.121Z,28.50
2019-02-25T20:29:08.374Z,26.50
2019-02-25T20:31:37.708Z,23.57
2019-02-25T20:34:07.232Z,27.80
2019-02-25T20:36:36.886Z,24.10
2019-02-25T20:39:07.753Z,21.50
2019-02-25T20:41:37.174Z,21.07
2019-02-25T20:44:06.598Z,27.07
2019-02-25T20:46:36.056Z,28.70
2019-02-25T20:49:05.770Z,24.47
2019-02-25T20:51:36.200Z,26.47
2019-02-25T20:54:05.859Z,29.43
2019-02-25T20:56:35.302Z,35.23
2019-02-25T20:59:06.179Z,29.27
2019-02-25T21:01:39.520Z,32.47
2019-02-25T21:04:08.769Z,28.97
2019-02-25T21:06:39.702Z,31.97
2019-02-25T21:09:11.144Z,32.37
2019-02-25T21:11:40.761Z,32.57
2019-02-25T21:14:10.131Z,24.37
2019-02-25T21:16:39.601Z,24.27
2019-02-25T21:19:10.765Z,24.00
2019-02-25T21:21:40.392Z,25.87
2019-02-25T21:24:13.080Z,21.73
2019-02-25T21:26:41.264Z,22.17
2019-02-25T21:29:10.639Z,20.90
2019-02-25T21:31:42.838Z,28.53
2019-02-25T21:34:15.162Z,23.53
2019-02-25T21:36:42.527Z,24.63
2019-02-25T21:39:14.665Z,24.17
2019-02-25T21:41:45.719Z,32.33
2019-02-25T21:44:18.892Z,31.57
2019-02-25T21:46:49.501Z,28.93
2019-02-25T21:49:22.590Z,31.67
2019-02-25T21:51:49.309Z,29.17
2019-02-25T21:54:19.138Z,23.03
2019-02-25T21:56:48.637Z,19.20
2019-02-25T21:59:18.100Z,18.07
2019-02-25T22:01:47.730Z,16.07
2019-02-25T22:04:17.972Z,15.20
2019-02-25T22:06:50.969Z,19.67
2019-02-25T22:09:35.378Z,17.70
2019-02-25T22:11:51.214Z,20.17
2019-02-25T22:14:22.971Z,17.47
2019-02-25T22:16:53.939Z,18.77
2019-02-25T22:19:23.175Z,16.27
2019-02-25T22:21:55.618Z,17.80
2019-02-25T22:24:27.031Z,14.60
2019-02-25T22:26:56.308Z,17.53
2019-02-25T22:29:26.143Z,21.00
2019-02-25T22:31:55.625Z,21.00
2019-02-25T22:34:25.407Z,17.17
2019-02-25T22:36:55.961Z,17.77
2019-02-25T22:39:27.349Z,20.83
2019-02-25T22:41:56.680Z,16.90
2019-02-25T22:44:26.952Z,18.67
2019-02-25T22:46:57.424Z,14.00
2019-02-25T22:49:28.830Z,19.63
2019-02-25T22:52:00.147Z,16.67
2019-02-25T22:54:29.195Z,15.73
2019-02-25T22:56:58.642Z,16.70
2019-02-25T22:59:28.027Z,19.30
2019-02-25T23:01:57.521Z,18.07
2019-02-25T23:04:27.099Z,21.07
2019-02-25T23:06:56.518Z,22.17
2019-02-25T23:09:26.393Z,18.33
2019-02-25T23:11:55.898Z,28.93
2019-02-25T23:14:25.452Z,21.60
2019-02-25T23:16:54.979Z,21.13
2019-02-25T23:19:24.412Z,19.03
2019-02-25T23:21:53.821Z,17.43
2019-02-25T23:24:25.958Z,22.10
2019-02-25T23:26:55.196Z,22.00
2019-02-25T23:29:28.313Z,17.90
2019-02-25T23:31:56.831Z,18.63
2019-02-25T23:34:26.205Z,19.57
2019-02-25T23:36:56.213Z,17.30
2019-02-25T23:39:25.901Z,16.53
2019-02-25T23:41:55.330Z,15.93
2019-02-25T23:44:24.766Z,14.90
2019-02-25T23:46:57.952Z,16.17
2019-02-25T23:49:27.546Z,17.10
2019-02-25T23:51:56.570Z,14.23
2019-02-25T23:54:27.993Z,14.67
2019-02-25T23:56:59.644Z,15.93
2019-02-25T23:59:28.523Z,15.47
